Time;durP1;ratioP1;P1;durP2;ratioP2;P2;SDS_P1;SDS_P2;PMS_P1;PMS_P2;Temp;Humidity;BMP_temperature;BMP_pressure;BME280_temperature;BME280_humidity;BME280_pressure;Samples;Min_cycle;Max_cycle;Signal;HPM_P1;HPM_P2
2022/03/05 00:00:26;;;;;;;19.45;8.38;;;1.00;62.60;;;;;;4946813;28;20043;-79
2022/03/05 00:02:51;;;;;;;19.08;7.88;;;1.00;62.80;;;;;;4956940;28;20179;-79
2022/03/05 00:05:17;;;;;;;23.75;9.10;;;1.00;63.30;;;;;;4930421;28;20101;-78
2022/03/05 00:07:43;;;;;;;23.83;8.98;;;1.00;63.10;;;;;;4930272;28;20178;-79
2022/03/05 00:10:09;;;;;;;24.23;9.18;;;0.90;63.20;;;;;;4910138;28;20733;-77
2022/03/05 00:12:35;;;;;;;23.63;8.88;;;0.90;63.20;;;;;;4932126;28;20038;-78
2022/03/05 00:15:00;;;;;;;23.10;8.80;;;0.90;63.20;;;;;;4930960;28;20049;-79
2022/03/05 00:17:27;;;;;;;24.95;8.82;;;0.80;63.40;;;;;;4946535;28;20411;-78
2022/03/05 00:19:53;;;;;;;22.75;8.88;;;0.80;63.40;;;;;;4921774;28;20114;-78
2022/03/05 00:22:19;;;;;;;24.33;8.77;;;0.70;63.40;;;;;;4936647;28;20696;-80
2022/03/05 00:24:45;;;;;;;22.73;8.45;;;0.70;63.50;;;;;;4945017;28;20130;-78
2022/03/05 00:27:11;;;;;;;23.65;8.70;;;0.70;63.70;;;;;;4938011;28;20081;-78
2022/03/05 00:29:36;;;;;;;20.70;9.02;;;0.70;63.70;;;;;;4947116;28;20719;-78
2022/03/05 00:32:02;;;;;;;20.25;8.40;;;0.60;63.70;;;;;;4945436;28;20423;-78
2022/03/05 00:34:28;;;;;;;23.85;8.95;;;0.60;63.80;;;;;;4936495;28;20653;-78
2022/03/05 00:36:53;;;;;;;19.58;9.13;;;0.60;63.90;;;;;;4950279;28;20574;-78
2022/03/05 00:39:19;;;;;;;25.35;9.73;;;0.50;63.80;;;;;;4961399;28;20566;-77
2022/03/05 00:41:44;;;;;;;26.75;10.00;;;0.50;63.90;;;;;;4936741;28;20053;-78
2022/03/05 00:44:10;;;;;;;22.33;9.27;;;0.40;63.90;;;;;;4921670;28;20053;-77
2022/03/05 00:46:35;;;;;;;23.40;9.15;;;0.40;64.00;;;;;;4958428;28;20031;-78
2022/03/05 00:49:01;;;;;;;27.10;9.63;;;0.40;64.10;;;;;;4946146;28;20062;-77
2022/03/05 00:51:26;;;;;;;19.17;8.50;;;0.30;64.10;;;;;;4944080;28;20035;-78
2022/03/05 00:53:52;;;;;;;22.42;9.20;;;0.30;64.10;;;;;;4946804;28;20480;-77
2022/03/05 00:56:17;;;;;;;24.25;9.73;;;0.20;64.30;;;;;;4939090;28;20043;-78
2022/03/05 00:58:43;;;;;;;23.98;8.63;;;0.20;64.40;;;;;;4961361;28;20484;-77
2022/03/05 01:01:09;;;;;;;20.30;8.48;;;0.10;64.50;;;;;;4947861;28;20042;-79
2022/03/05 01:03:34;;;;;;;22.77;8.55;;;0.10;64.70;;;;;;4925990;28;20619;-78
2022/03/05 01:06:00;;;;;;;23.15;9.10;;;0.10;64.80;;;;;;4944710;28;20053;-77
2022/03/05 01:08:26;;;;;;;25.08;8.73;;;0.10;65.00;;;;;;4946777;28;20047;-77
2022/03/05 01:10:51;;;;;;;24.35;9.35;;;0.10;65.00;;;;;;4940468;28;20047;-77
2022/03/05 01:13:17;;;;;;;19.58;8.60;;;0.10;65.80;;;;;;4960814;28;20062;-78
2022/03/05 01:15:42;;;;;;;24.88;9.43;;;0.10;65.20;;;;;;4931420;28;20101;-80
2022/03/05 01:18:08;;;;;;;23.98;9.35;;;0.00;65.20;;;;;;4934199;28;20142;-77
2022/03/05 01:20:34;;;;;;;24.13;8.90;;;0.00;65.10;;;;;;4946461;28;20038;-77
2022/03/05 01:22:59;;;;;;;23.02;8.45;;;0.00;65.20;;;;;;4958782;28;20055;-78
2022/03/05 01:25:25;;;;;;;27.13;10.20;;;-0.10;65.20;;;;;;4951539;28;20185;-79
2022/03/05 01:27:50;;;;;;;24.80;9.13;;;-0.10;65.40;;;;;;4945632;28;20125;-78
2022/03/05 01:30:16;;;;;;;23.67;8.65;;;-0.10;65.50;;;;;;4957514;28;20571;-76
2022/03/05 01:32:41;;;;;;;20.50;8.43;;;-0.10;65.50;;;;;;4949035;28;20603;-78
2022/03/05 01:35:07;;;;;;;24.13;9.40;;;-0.10;65.50;;;;;;4951478;28;20560;-78
2022/03/05 01:37:33;;;;;;;24.02;8.90;;;-0.20;65.60;;;;;;4950134;28;20039;-77
2022/03/05 01:39:58;;;;;;;21.52;8.75;;;-0.20;65.60;;;;;;4947831;28;20539;-77
2022/03/05 01:42:27;;;;;;;24.00;9.30;;;-0.20;65.60;;;;;;4928860;28;20512;-78
2022/03/05 01:44:52;;;;;;;25.73;9.52;;;-0.20;65.70;;;;;;4955535;28;20097;-77
2022/03/05 01:47:19;;;;;;;24.52;9.25;;;-0.30;65.70;;;;;;4946923;28;20142;-78
2022/03/05 01:49:44;;;;;;;26.05;10.40;;;-0.30;65.80;;;;;;4937661;28;20046;-78
2022/03/05 01:52:10;;;;;;;23.92;10.13;;;-0.30;65.90;;;;;;4946018;28;20034;-78
2022/03/05 01:54:36;;;;;;;23.23;9.05;;;-0.30;66.00;;;;;;4928458;28;20049;-78
2022/03/05 01:57:01;;;;;;;21.95;8.95;;;-0.30;66.00;;;;;;4937395;28;20031;-78
2022/03/05 01:59:27;;;;;;;19.73;8.68;;;-0.40;66.10;;;;;;4946244;28;20074;-78
2022/03/05 02:01:52;;;;;;;20.35;9.43;;;-0.30;66.10;;;;;;4961654;28;20039;-78
2022/03/05 02:04:18;;;;;;;22.60;9.00;;;-0.40;66.20;;;;;;4953875;28;20055;-78
2022/03/05 02:06:44;;;;;;;19.60;8.90;;;-0.40;66.10;;;;;;4932848;28;20031;-78
2022/03/05 02:09:09;;;;;;;24.00;8.95;;;-0.50;66.20;;;;;;4945720;28;20381;-78
2022/03/05 02:11:35;;;;;;;21.40;8.20;;;-0.50;66.30;;;;;;4940426;28;20854;-78
2022/03/05 02:14:00;;;;;;;24.25;9.40;;;-0.60;66.40;;;;;;4957999;28;20035;-78
2022/03/05 02:16:26;;;;;;;24.67;10.75;;;-0.60;66.60;;;;;;4945548;28;20436;-77
2022/03/05 02:18:55;;;;;;;28.25;9.43;;;-0.60;66.70;;;;;;4958321;28;20094;-78
2022/03/05 02:21:21;;;;;;;22.23;8.90;;;-0.60;66.80;;;;;;4944003;28;20049;-77
2022/03/05 02:23:46;;;;;;;25.67;9.90;;;-0.60;66.80;;;;;;4962466;28;20051;-77
2022/03/05 02:26:12;;;;;;;22.73;9.50;;;-0.60;66.90;;;;;;4920872;28;20114;-77
2022/03/05 02:28:37;;;;;;;22.55;9.18;;;-0.60;67.10;;;;;;4941606;28;20091;-77
2022/03/05 02:31:03;;;;;;;23.55;8.60;;;-0.60;67.10;;;;;;4942749;28;20158;-77
2022/03/05 02:33:29;;;;;;;23.35;9.90;;;-0.60;68.00;;;;;;4945139;28;20066;-77
2022/03/05 02:35:54;;;;;;;25.77;9.30;;;-0.60;67.20;;;;;;4944274;28;20042;-77
2022/03/05 02:38:21;;;;;;;27.30;9.85;;;-0.60;67.20;;;;;;4942086;28;20050;-78
2022/03/05 02:40:47;;;;;;;20.33;8.77;;;-0.60;67.20;;;;;;4934266;28;20114;-77
2022/03/05 02:43:12;;;;;;;24.45;9.57;;;-0.70;67.20;;;;;;4945629;28;20054;-77
2022/03/05 02:45:38;;;;;;;24.45;10.00;;;-0.70;67.20;;;;;;4958062;28;20500;-77
2022/03/05 02:48:05;;;;;;;23.85;9.80;;;-0.70;67.20;;;;;;4933972;28;20043;-78
2022/03/05 02:50:31;;;;;;;22.52;9.50;;;-0.70;67.40;;;;;;4926671;28;20405;-78
2022/03/05 02:52:57;;;;;;;19.52;9.20;;;-0.70;67.50;;;;;;4959939;28;20081;-77
2022/03/05 02:55:22;;;;;;;20.23;8.77;;;-0.70;67.60;;;;;;4930067;28;20106;-77
2022/03/05 02:57:48;;;;;;;23.52;8.98;;;-0.70;67.70;;;;;;4937055;28;20035;-78
2022/03/05 03:00:15;;;;;;;26.40;9.88;;;-0.70;67.80;;;;;;4950938;28;20047;-78
2022/03/05 03:02:41;;;;;;;23.38;9.60;;;-0.70;67.90;;;;;;4928964;28;20099;-78
2022/03/05 03:05:06;;;;;;;26.38;9.80;;;-0.70;67.90;;;;;;4937095;28;20051;-77
2022/03/05 03:07:32;;;;;;;23.73;9.27;;;-0.70;68.00;;;;;;4925378;29;20067;-78
2022/03/05 03:09:58;;;;;;;23.73;9.82;;;-0.70;68.00;;;;;;4943564;28;20031;-77
2022/03/05 03:12:25;;;;;;;24.90;8.68;;;-0.70;68.00;;;;;;4939826;28;20051;-77
2022/03/05 03:14:51;;;;;;;27.63;10.13;;;-0.80;67.90;;;;;;4956152;28;20103;-77
2022/03/05 03:17:17;;;;;;;29.05;10.75;;;-0.80;68.00;;;;;;4953508;28;20043;-77
2022/03/05 03:19:42;;;;;;;23.13;9.10;;;-0.80;68.10;;;;;;4940261;28;20042;-78
2022/03/05 03:22:08;;;;;;;25.27;9.02;;;-0.80;68.10;;;;;;4954212;28;20052;-77
2022/03/05 03:24:33;;;;;;;26.05;9.68;;;-0.80;68.30;;;;;;4942645;28;20389;-77
2022/03/05 03:26:59;;;;;;;22.90;9.93;;;-0.80;68.40;;;;;;4949694;28;20745;-77
2022/03/05 03:29:24;;;;;;;20.92;9.15;;;-0.80;68.40;;;;;;4940286;28;20066;-77
2022/03/05 03:31:50;;;;;;;24.10;10.07;;;-0.80;68.40;;;;;;4940498;28;20031;-78
2022/03/05 03:34:15;;;;;;;27.13;9.30;;;-0.80;68.40;;;;;;4921719;28;20035;-77
2022/03/05 03:36:41;;;;;;;24.30;8.70;;;-0.80;68.50;;;;;;4953936;28;20032;-77
2022/03/05 03:39:06;;;;;;;19.52;9.32;;;-0.80;68.60;;;;;;4926400;28;20048;-78
2022/03/05 03:41:32;;;;;;;23.85;9.32;;;-0.80;68.70;;;;;;4941431;28;20050;-78
2022/03/05 03:43:57;;;;;;;27.02;9.15;;;-0.80;68.70;;;;;;4943463;28;20043;-78
2022/03/05 03:46:23;;;;;;;23.13;8.77;;;-0.80;68.70;;;;;;4935620;28;20035;-76
2022/03/05 03:48:49;;;;;;;26.60;10.45;;;-0.80;68.80;;;;;;4934446;28;20934;-77
2022/03/05 03:51:14;;;;;;;24.10;9.93;;;-0.80;68.80;;;;;;4936823;28;20045;-78
2022/03/05 03:53:40;;;;;;;21.40;9.32;;;-0.80;68.80;;;;;;4939288;28;20044;-77
2022/03/05 03:56:05;;;;;;;27.38;10.43;;;-0.90;68.80;;;;;;4920836;28;20062;-77
2022/03/05 03:58:31;;;;;;;24.70;9.48;;;-0.90;68.90;;;;;;4935920;28;20067;-78
2022/03/05 04:00:56;;;;;;;23.50;9.65;;;-0.90;68.90;;;;;;4922517;29;20069;-77
2022/03/05 04:03:22;;;;;;;27.25;9.45;;;-0.90;69.00;;;;;;4917137;28;20039;-79
2022/03/05 04:05:47;;;;;;;23.25;9.25;;;-1.00;69.00;;;;;;4932194;28;20495;-78
2022/03/05 04:10:57;;;;;;;20.65;8.80;;;-0.90;69.20;;;;;;4924735;28;20071;-76
2022/03/05 04:13:22;;;;;;;25.08;10.07;;;-0.90;69.20;;;;;;4922065;28;20063;-77
2022/03/05 04:15:48;;;;;;;26.25;10.10;;;-0.90;69.30;;;;;;4920611;29;20726;-77
2022/03/05 04:18:14;;;;;;;24.38;9.15;;;-1.00;69.20;;;;;;4928511;28;20075;-77
2022/03/05 04:20:39;;;;;;;23.58;10.68;;;-1.00;69.20;;;;;;4922779;29;20047;-77
2022/03/05 04:23:05;;;;;;;22.05;8.70;;;-1.00;69.30;;;;;;4921549;28;20114;-77
2022/03/05 04:25:30;;;;;;;27.05;10.05;;;-1.10;69.40;;;;;;4918318;28;20043;-76
2022/03/05 04:27:56;;;;;;;23.88;10.02;;;-1.10;69.40;;;;;;4923642;28;20049;-78
2022/03/05 04:30:21;;;;;;;22.60;9.02;;;-1.10;69.50;;;;;;4920327;28;20127;-79
2022/03/05 04:32:47;;;;;;;26.33;9.90;;;-1.00;69.60;;;;;;4918064;28;20035;-79
2022/03/05 04:35:13;;;;;;;23.15;9.32;;;-1.10;69.60;;;;;;4920279;28;20032;-79
2022/03/05 04:37:38;;;;;;;21.30;9.00;;;-1.10;69.50;;;;;;4926608;29;20054;-77
2022/03/05 04:40:05;;;;;;;23.92;8.98;;;-1.10;69.50;;;;;;4925191;29;20465;-78
2022/03/05 04:42:30;;;;;;;22.67;10.00;;;-1.10;69.60;;;;;;4922654;29;20627;-77
2022/03/05 04:44:56;;;;;;;22.98;9.60;;;-1.20;69.60;;;;;;4920379;28;20138;-78
2022/03/05 04:47:22;;;;;;;17.83;8.43;;;-1.20;69.60;;;;;;4929831;29;20044;-77
2022/03/05 04:49:47;;;;;;;25.88;11.10;;;-1.20;69.70;;;;;;4919014;29;20066;-76
2022/03/05 04:52:13;;;;;;;24.42;9.75;;;-1.20;69.70;;;;;;4929092;28;20131;-78
2022/03/05 04:54:38;;;;;;;26.38;10.63;;;-1.20;69.90;;;;;;4927835;29;20064;-79
2022/03/05 04:57:04;;;;;;;24.98;9.88;;;-1.30;69.90;;;;;;4920970;29;20048;-79
2022/03/05 04:59:30;;;;;;;28.83;11.45;;;-1.30;70.70;;;;;;4935030;28;20055;-79
2022/03/05 05:01:56;;;;;;;27.33;10.57;;;-1.30;69.90;;;;;;4944136;28;20494;-77
2022/03/05 05:04:22;;;;;;;24.38;9.43;;;-1.30;69.90;;;;;;4945321;28;20038;-77
2022/03/05 05:06:47;;;;;;;24.15;9.77;;;-1.30;69.90;;;;;;4957702;28;20039;-77
2022/03/05 05:09:13;;;;;;;25.27;9.10;;;-1.30;70.00;;;;;;4944392;28;20475;-76
2022/03/05 05:11:39;;;;;;;31.13;12.75;;;-1.30;70.10;;;;;;4945925;28;20683;-77
2022/03/05 05:14:04;;;;;;;23.20;9.93;;;-1.40;70.10;;;;;;4941517;28;20036;-76
2022/03/05 05:16:30;;;;;;;31.13;11.57;;;-1.30;70.20;;;;;;4942843;28;20038;-77
2022/03/05 05:21:40;;;;;;;27.92;10.45;;;-1.40;70.30;;;;;;4965783;28;20027;-78
2022/03/05 05:24:06;;;;;;;29.38;11.73;;;-1.40;70.20;;;;;;4962902;28;20039;-76
2022/03/05 05:26:31;;;;;;;24.92;11.38;;;-1.40;70.30;;;;;;4950068;28;20031;-76
2022/03/05 05:28:57;;;;;;;30.83;11.80;;;-1.30;70.50;;;;;;4923344;28;20094;-76
2022/03/05 05:31:22;;;;;;;36.03;14.48;;;-1.40;70.40;;;;;;4954238;28;20452;-76
2022/03/05 05:33:50;;;;;;;40.70;16.23;;;-1.30;70.50;;;;;;4961628;28;20117;-78
2022/03/05 05:36:15;;;;;;;34.15;13.38;;;-1.40;70.60;;;;;;4942518;28;20122;-77
2022/03/05 05:38:41;;;;;;;30.15;11.27;;;-1.30;70.70;;;;;;4961966;28;20586;-78
2022/03/05 05:41:07;;;;;;;25.73;11.82;;;-1.30;70.70;;;;;;4935947;28;20079;-78
2022/03/05 05:43:32;;;;;;;37.42;16.30;;;-1.30;70.70;;;;;;4951039;28;20139;-78
2022/03/05 05:45:58;;;;;;;28.42;11.85;;;-1.30;70.80;;;;;;4953948;28;20054;-76
2022/03/05 05:48:23;;;;;;;29.60;12.38;;;-1.30;70.90;;;;;;4950368;28;20042;-78
2022/03/05 05:50:49;;;;;;;32.78;12.45;;;-1.30;70.90;;;;;;4939512;28;20043;-79
2022/03/05 05:53:14;;;;;;;27.58;10.40;;;-1.30;71.00;;;;;;4958947;28;20035;-78
2022/03/05 05:55:40;;;;;;;28.95;11.07;;;-1.30;71.00;;;;;;4942454;28;20780;-78
2022/03/05 05:58:05;;;;;;;25.10;10.48;;;-1.30;71.10;;;;;;4945038;28;20044;-77
2022/03/05 06:00:31;;;;;;;26.77;11.77;;;-1.30;71.20;;;;;;4949994;28;20050;-77
2022/03/05 06:02:56;;;;;;;26.35;10.32;;;-1.30;71.20;;;;;;4934246;28;20047;-78
2022/03/05 06:05:22;;;;;;;25.42;10.73;;;-1.30;71.40;;;;;;4948430;28;20031;-77
2022/03/05 06:07:47;;;;;;;24.98;10.57;;;-1.30;71.40;;;;;;4954005;28;20059;-78
2022/03/05 06:10:13;;;;;;;26.33;10.43;;;-1.30;71.40;;;;;;4928935;28;20035;-78
2022/03/05 06:12:38;;;;;;;26.13;10.80;;;-1.20;71.60;;;;;;4948150;28;20038;-77
2022/03/05 06:15:05;;;;;;;28.02;10.85;;;-1.20;71.60;;;;;;4956398;28;20126;-79
2022/03/05 06:17:31;;;;;;;22.83;10.30;;;-1.20;71.60;;;;;;4955876;28;20089;-77
2022/03/05 06:19:56;;;;;;;24.17;10.27;;;-1.20;71.60;;;;;;4942249;28;21405;-78
2022/03/05 06:22:23;;;;;;;24.63;9.95;;;-1.20;71.70;;;;;;4966808;28;20512;-79
2022/03/05 06:24:48;;;;;;;66.15;19.58;;;-1.20;71.70;;;;;;4941147;28;20026;-79
2022/03/05 06:27:14;;;;;;;71.65;23.42;;;-1.20;71.80;;;;;;4939770;28;20130;-78
2022/03/05 06:29:39;;;;;;;94.18;26.23;;;-1.20;72.70;;;;;;4951983;28;20142;-78
2022/03/05 06:32:05;;;;;;;40.80;13.98;;;-1.20;71.80;;;;;;4935144;28;20477;-79
2022/03/05 06:34:31;;;;;;;45.70;15.90;;;-1.20;71.80;;;;;;4942161;28;20774;-80
2022/03/05 06:36:57;;;;;;;57.40;16.65;;;-1.10;71.90;;;;;;4926749;28;20035;-80
2022/03/05 06:39:22;;;;;;;41.30;14.93;;;-1.10;72.00;;;;;;4946431;28;20062;-79
2022/03/05 06:41:49;;;;;;;38.35;15.38;;;-1.10;72.00;;;;;;4901838;29;20047;-79
2022/03/05 06:44:15;;;;;;;36.58;14.73;;;-1.10;72.10;;;;;;4943247;28;20035;-78
2022/03/05 06:46:41;;;;;;;52.65;18.85;;;-1.10;72.10;;;;;;4944933;28;20045;-78
2022/03/05 06:49:06;;;;;;;44.08;18.42;;;-1.00;72.10;;;;;;4946787;28;20049;-78
2022/03/05 06:51:32;;;;;;;28.08;11.57;;;-1.00;72.20;;;;;;4956072;28;20046;-78
2022/03/05 06:53:57;;;;;;;32.97;13.05;;;-1.00;72.10;;;;;;4949419;28;20066;-79
2022/03/05 06:56:23;;;;;;;30.20;11.00;;;-1.00;72.10;;;;;;4952659;28;20863;-78
2022/03/05 06:58:48;;;;;;;35.83;13.55;;;-1.00;72.10;;;;;;4952194;28;20523;-79
2022/03/05 07:01:14;;;;;;;37.15;15.55;;;-1.00;72.10;;;;;;4937706;28;20034;-79
2022/03/05 07:03:39;;;;;;;37.53;16.23;;;-1.00;72.20;;;;;;4915713;28;20130;-78
2022/03/05 07:06:05;;;;;;;41.40;17.17;;;-1.00;72.30;;;;;;4958065;28;20054;-78
2022/03/05 07:08:30;;;;;;;30.50;14.00;;;-1.00;72.30;;;;;;4957566;28;20336;-78
2022/03/05 07:10:56;;;;;;;33.63;13.35;;;-1.00;72.30;;;;;;4968394;28;20041;-79
2022/03/05 07:13:21;;;;;;;34.45;12.32;;;-0.90;72.40;;;;;;4953201;28;20058;-79
2022/03/05 07:15:47;;;;;;;31.77;13.10;;;-1.00;72.30;;;;;;4950239;28;20184;-79
2022/03/05 07:18:12;;;;;;;32.72;12.45;;;-1.00;72.40;;;;;;4938461;28;20161;-79
2022/03/05 07:20:38;;;;;;;30.15;13.65;;;-1.00;72.40;;;;;;4954820;28;20048;-78
2022/03/05 07:23:04;;;;;;;30.05;12.25;;;-0.90;72.50;;;;;;4959795;28;20126;-77
2022/03/05 07:25:36;;;;;;;26.50;11.40;;;-0.90;72.60;;;;;;4936342;28;20055;-77
2022/03/05 07:28:04;;;;;;;;;;;-0.90;72.60;;;;;;4941178;28;20087;-79
2022/03/05 07:30:30;;;;;;;26.60;10.80;;;-0.80;72.50;;;;;;4956664;28;19918;-78
2022/03/05 07:32:55;;;;;;;35.90;11.65;;;-0.80;72.20;;;;;;4945279;28;20712;-78
2022/03/05 07:35:21;;;;;;;23.55;10.80;;;-0.80;72.30;;;;;;4940599;28;20027;-78
2022/03/05 07:37:46;;;;;;;28.13;11.57;;;-0.70;72.50;;;;;;4955750;28;20149;-78
2022/03/05 07:40:12;;;;;;;31.95;12.15;;;-0.70;72.50;;;;;;4955208;28;20070;-77
2022/03/05 07:42:38;;;;;;;28.08;11.80;;;-0.60;72.60;;;;;;4965755;28;20492;-78
2022/03/05 07:45:03;;;;;;;32.30;13.52;;;-0.60;72.70;;;;;;4958503;28;20046;-78
2022/03/05 07:47:29;;;;;;;36.90;14.95;;;-0.50;72.70;;;;;;4951089;28;20813;-77
2022/03/05 07:49:54;;;;;;;36.67;13.65;;;-0.50;72.70;;;;;;4942290;28;20047;-78
2022/03/05 07:52:20;;;;;;;30.00;12.50;;;-0.50;72.70;;;;;;4950349;28;20039;-78
2022/03/05 07:54:46;;;;;;;27.20;12.23;;;-0.40;72.80;;;;;;4962126;28;20354;-78
2022/03/05 07:57:11;;;;;;;26.83;11.15;;;-0.30;72.90;;;;;;4942577;28;20051;-79
2022/03/05 07:59:37;;;;;;;33.53;14.13;;;-0.20;73.00;;;;;;4933160;28;20070;-79
2022/03/05 08:02:03;;;;;;;43.72;18.25;;;-0.10;73.00;;;;;;4934489;28;20044;-78
2022/03/05 08:04:28;;;;;;;36.75;14.45;;;0.10;73.10;;;;;;4954187;28;20099;-79
2022/03/05 08:06:54;;;;;;;32.25;12.50;;;0.20;73.10;;;;;;4940278;28;20031;-79
2022/03/05 08:09:19;;;;;;;24.70;12.23;;;0.40;73.10;;;;;;4956888;28;20038;-79
2022/03/05 08:11:45;;;;;;;31.95;13.95;;;0.50;73.10;;;;;;4945384;28;20086;-77
2022/03/05 08:14:10;;;;;;;29.60;13.35;;;0.60;73.00;;;;;;4946121;28;20114;-78
2022/03/05 08:16:36;;;;;;;29.83;12.57;;;0.70;72.90;;;;;;4944141;28;20215;-80
2022/03/05 08:19:01;;;;;;;27.33;11.98;;;0.80;72.80;;;;;;4917852;28;20051;-80
2022/03/05 08:21:27;;;;;;;33.85;13.02;;;0.90;72.80;;;;;;4951817;28;20039;-78
2022/03/05 08:23:53;;;;;;;35.85;13.75;;;0.90;72.60;;;;;;4952364;28;20039;-79
2022/03/05 08:26:19;;;;;;;27.55;12.07;;;1.00;72.70;;;;;;4956085;28;20133;-80
2022/03/05 08:28:45;;;;;;;25.30;12.85;;;1.10;72.60;;;;;;4918194;28;20042;-81
2022/03/05 08:31:11;;;;;;;24.92;12.35;;;1.20;72.80;;;;;;4929590;28;20113;-79
2022/03/05 08:33:40;;;;;;;29.63;12.20;;;1.30;73.20;;;;;;4937436;28;20051;-79
2022/03/05 08:36:06;;;;;;;30.55;11.65;;;1.40;72.80;;;;;;4971582;28;20197;-80
2022/03/05 08:38:34;;;;;;;27.55;12.00;;;1.50;72.70;;;;;;4935421;28;20110;-78
2022/03/05 08:40:59;;;;;;;27.20;11.05;;;1.70;72.60;;;;;;4968536;28;20038;-79
2022/03/05 08:43:25;;;;;;;25.33;11.27;;;1.80;72.40;;;;;;4963959;28;20047;-79
2022/03/05 08:45:51;;;;;;;19.85;9.48;;;1.90;72.30;;;;;;4959890;28;20046;-81
2022/03/05 08:48:16;;;;;;;21.38;10.70;;;2.00;72.20;;;;;;4939820;28;20075;-80
2022/03/05 08:50:42;;;;;;;21.70;10.98;;;2.10;72.10;;;;;;4959633;28;20038;-81
2022/03/05 08:53:08;;;;;;;22.25;10.82;;;2.30;72.10;;;;;;4923692;28;20645;-79
2022/03/05 08:55:33;;;;;;;22.70;10.73;;;2.40;72.10;;;;;;4941623;28;20102;-79
2022/03/05 08:57:59;;;;;;;23.70;11.57;;;2.60;72.20;;;;;;4932909;28;20038;-79
2022/03/05 09:00:24;;;;;;;24.48;12.05;;;2.70;72.00;;;;;;4948257;28;20415;-79
2022/03/05 09:02:50;;;;;;;24.75;11.25;;;2.90;71.90;;;;;;4939930;28;20038;-79
2022/03/05 09:05:15;;;;;;;22.38;10.93;;;3.00;71.70;;;;;;4935571;28;20627;-79
2022/03/05 09:07:42;;;;;;;20.98;10.68;;;3.20;71.60;;;;;;4944913;28;20515;-79
2022/03/05 09:10:08;;;;;;;23.17;10.90;;;3.30;71.60;;;;;;4937452;28;20840;-79
2022/03/05 09:12:33;;;;;;;23.50;11.98;;;3.50;71.50;;;;;;4945254;28;20070;-79
2022/03/05 09:14:59;;;;;;;26.65;12.35;;;3.70;71.30;;;;;;4922425;28;20591;-79
2022/03/05 09:17:24;;;;;;;21.17;10.57;;;3.80;71.10;;;;;;4931333;28;20035;-79
2022/03/05 09:19:50;;;;;;;26.67;12.32;;;4.00;70.80;;;;;;4925458;28;20062;-78
2022/03/05 09:22:17;;;;;;;22.40;10.52;;;4.20;70.30;;;;;;4941989;28;20051;-79
2022/03/05 09:24:42;;;;;;;18.75;10.32;;;4.30;70.10;;;;;;4947445;28;20035;-78
2022/03/05 09:27:09;;;;;;;18.27;10.02;;;4.50;70.20;;;;;;4946509;28;20077;-79
2022/03/05 09:29:35;;;;;;;19.75;9.55;;;4.60;70.00;;;;;;4962157;28;20043;-78
2022/03/05 09:32:00;;;;;;;18.85;9.48;;;4.80;69.80;;;;;;4942384;28;20094;-79
2022/03/05 09:34:26;;;;;;;18.83;9.68;;;5.00;69.70;;;;;;4936800;28;20101;-79
2022/03/05 09:36:52;;;;;;;23.63;10.20;;;5.20;69.70;;;;;;4944334;28;20039;-78
2022/03/05 09:39:18;;;;;;;16.77;9.13;;;5.40;69.40;;;;;;4943496;28;20042;-79
2022/03/05 09:41:43;;;;;;;21.25;10.57;;;5.60;69.20;;;;;;4949681;28;20038;-79
2022/03/05 09:44:09;;;;;;;18.73;9.75;;;5.80;69.00;;;;;;4939662;28;20097;-80
2022/03/05 09:46:35;;;;;;;16.63;9.25;;;5.90;68.60;;;;;;4945232;28;20074;-79
2022/03/05 09:49:01;;;;;;;18.88;10.70;;;6.10;68.40;;;;;;4945488;28;20150;-78
2022/03/05 09:51:27;;;;;;;17.67;9.90;;;6.30;68.20;;;;;;4944604;28;20031;-78
2022/03/05 09:53:53;;;;;;;17.85;9.55;;;6.50;67.90;;;;;;4942359;28;20114;-79
2022/03/05 09:56:18;;;;;;;16.92;9.20;;;6.60;67.40;;;;;;4938207;28;20046;-80
2022/03/05 09:58:44;;;;;;;17.63;9.18;;;6.80;67.30;;;;;;4959731;28;20046;-79
2022/03/05 10:01:10;;;;;;;20.00;10.02;;;7.00;67.10;;;;;;4950076;28;20534;-80
2022/03/05 10:03:45;;;;;;;17.58;9.85;;;7.10;66.70;;;;;;4939766;28;20039;-76
2022/03/05 10:06:17;;;;;;;15.35;8.18;;;7.30;66.30;;;;;;4965356;28;20043;-77
2022/03/05 10:08:44;;;;;;;18.13;9.35;;;7.40;66.20;;;;;;4950925;28;20062;-78
2022/03/05 10:11:11;;;;;;;15.15;9.15;;;7.60;66.10;;;;;;4936072;28;20066;-78
2022/03/05 10:13:38;;;;;;;16.65;10.00;;;7.80;65.80;;;;;;4936563;28;20079;-79
2022/03/05 10:16:05;;;;;;;16.77;9.25;;;8.00;65.60;;;;;;4944490;28;20075;-79
2022/03/05 10:18:32;;;;;;;16.48;9.23;;;8.20;65.30;;;;;;4936635;28;20042;-78
2022/03/05 10:20:59;;;;;;;17.73;9.57;;;8.40;65.00;;;;;;4932110;28;20047;-78
2022/03/05 10:23:25;;;;;;;17.48;9.02;;;8.60;64.50;;;;;;4929999;28;20457;-79
2022/03/05 10:25:54;;;;;;;15.27;8.85;;;8.80;64.00;;;;;;4964144;28;20042;-79
2022/03/05 10:28:21;;;;;;;16.70;8.85;;;8.90;63.60;;;;;;4935905;28;20590;-80
2022/03/05 10:30:48;;;;;;;17.63;9.52;;;9.10;63.40;;;;;;4959108;28;20054;-79
2022/03/05 10:33:32;;;;;;;16.98;9.90;;;9.30;63.30;;;;;;4946700;28;20039;-79
2022/03/05 10:36:23;;;;;;;20.75;10.43;;;9.50;62.90;;;;;;4940786;28;20076;-79
2022/03/05 10:38:56;;;;;;;15.50;9.70;;;9.70;62.00;;;;;;4957519;28;20587;-79
2022/03/05 10:41:34;;;;;;;14.95;9.43;;;9.70;61.90;;;;;;4961916;28;20038;-78
2022/03/05 10:44:16;;;;;;;19.25;8.50;;;9.80;61.90;;;;;;4955165;28;20050;-75
2022/03/05 10:46:42;;;;;;;15.93;8.70;;;9.90;62.10;;;;;;4950998;28;20075;-79
2022/03/05 10:49:36;;;;;;;14.23;8.98;;;10.10;61.60;;;;;;4962574;28;20038;-79
2022/03/05 10:52:05;;;;;;;14.75;8.88;;;10.40;60.90;;;;;;4958769;28;20090;-78
2022/03/05 10:54:32;;;;;;;18.35;9.85;;;10.60;60.70;;;;;;4930445;28;20051;-78
2022/03/05 10:57:06;;;;;;;13.73;8.35;;;10.60;60.00;;;;;;4959712;28;20043;-78
2022/03/05 10:59:39;;;;;;;14.75;9.13;;;10.70;60.30;;;;;;4950765;28;20042;-77
2022/03/05 11:02:06;;;;;;;17.88;10.23;;;10.90;59.70;;;;;;4942904;28;20054;-77
2022/03/05 11:04:31;;;;;;;18.20;10.85;;;11.10;59.50;;;;;;4950716;28;20035;-78
2022/03/05 11:06:57;;;;;;;18.08;8.80;;;11.30;58.90;;;;;;4951531;28;20127;-79
2022/03/05 11:09:23;;;;;;;12.52;7.60;;;11.40;58.20;;;;;;4952648;28;20035;-79
2022/03/05 11:11:48;;;;;;;12.60;7.97;;;11.60;58.30;;;;;;4935367;28;20050;-78
2022/03/05 11:14:14;;;;;;;13.65;8.02;;;11.80;58.30;;;;;;4955392;28;20640;-78
2022/03/05 11:16:40;;;;;;;15.32;7.97;;;12.10;58.10;;;;;;4949724;28;20546;-78
2022/03/05 11:19:06;;;;;;;13.85;8.25;;;12.30;57.40;;;;;;4951430;28;20137;-79
2022/03/05 11:21:31;;;;;;;14.93;9.00;;;12.50;57.10;;;;;;4952031;28;20556;-78
2022/03/05 11:23:57;;;;;;;14.95;7.93;;;12.70;56.50;;;;;;4948717;28;20048;-77
2022/03/05 11:26:23;;;;;;;12.20;7.43;;;12.80;56.30;;;;;;4947402;28;20054;-80
2022/03/05 11:28:49;;;;;;;11.82;7.45;;;13.00;56.20;;;;;;4937210;28;20047;-79
2022/03/05 11:31:16;;;;;;;12.45;7.93;;;13.10;55.90;;;;;;4938021;28;20035;-78
2022/03/05 11:33:43;;;;;;;11.50;7.35;;;13.20;55.40;;;;;;4964940;28;20050;-78
2022/03/05 11:36:22;;;;;;;12.98;7.95;;;13.30;55.00;;;;;;4948464;28;20093;-79
2022/03/05 11:38:47;;;;;;;14.02;7.35;;;13.30;53.30;;;;;;4949922;28;20302;-76
2022/03/05 11:41:19;;;;;;;10.68;6.95;;;13.10;54.00;;;;;;4939552;28;20082;-77
2022/03/05 11:43:46;;;;;;;;;;;13.00;54.20;;;;;;4948235;28;20058;-79
2022/03/05 11:46:22;;;;;;;10.25;6.68;;;13.10;54.80;;;;;;4941202;28;19926;-77
2022/03/05 11:49:11;;;;;;;11.10;7.20;;;13.20;54.40;;;;;;4954495;28;20047;-79
2022/03/05 11:51:56;;;;;;;11.48;7.43;;;13.30;53.60;;;;;;4958687;28;20040;-78
2022/03/05 11:54:22;;;;;;;11.38;7.55;;;13.30;52.50;;;;;;4963334;28;20199;-78
2022/03/05 11:57:14;;;;;;;12.35;7.70;;;13.30;53.50;;;;;;4951440;28;20614;-78
2022/03/05 11:59:40;;;;;;;14.93;8.90;;;13.40;52.30;;;;;;4942572;28;20136;-79
2022/03/05 12:02:06;;;;;;;8.35;5.82;;;13.40;52.80;;;;;;4966518;28;20102;-78
2022/03/05 12:04:32;;;;;;;29.02;20.10;;;13.40;52.30;;;;;;4951989;28;20038;-79
2022/03/05 12:07:04;;;;;;;13.60;6.88;;;13.40;52.20;;;;;;4966396;28;20323;-78
2022/03/05 12:09:40;;;;;;;11.13;7.60;;;13.40;51.60;;;;;;4948212;28;20058;-78
2022/03/05 12:12:10;;;;;;;10.73;6.57;;;13.30;51.30;;;;;;4924627;28;20063;-77
2022/03/05 12:15:03;;;;;;;8.90;5.75;;;13.20;51.50;;;;;;4945048;28;20046;-77
2022/03/05 12:17:54;;;;;;;8.32;5.38;;;13.10;51.40;;;;;;4966243;28;20035;-78
2022/03/05 12:20:26;;;;;;;8.90;6.00;;;13.00;51.60;;;;;;4944684;28;20086;-78
2022/03/05 12:22:57;;;;;;;9.75;5.53;;;13.00;51.50;;;;;;4945402;28;20145;-78
2022/03/05 12:25:23;;;;;;;6.65;4.60;;;12.90;51.60;;;;;;4944215;28;20049;-78
2022/03/05 12:27:52;;;;;;;6.30;4.63;;;12.80;51.40;;;;;;4961084;28;20039;-78
2022/03/05 12:30:18;;;;;;;8.77;4.82;;;12.80;51.10;;;;;;4959132;28;20102;-78
2022/03/05 12:32:45;;;;;;;8.20;5.63;;;12.90;50.90;;;;;;4952497;28;20526;-77
2022/03/05 12:35:11;;;;;;;7.72;4.63;;;12.90;50.70;;;;;;4957242;28;20055;-78
2022/03/05 12:37:36;;;;;;;7.80;4.50;;;13.10;50.70;;;;;;4930307;28;20415;-77